Time;durP1;ratioP1;P1;durP2;ratioP2;P2;SDS_P1;SDS_P2;PMS_P1;PMS_P2;Temp;Humidity;BMP_temperature;BMP_pressure;BME280_temperature;BME280_humidity;BME280_pressure;Samples;Min_cycle;Max_cycle;Signal;HPM_P1;HPM_P2
2023/12/29 09:50:50;;;;;;;4.00;2.60;;;;;;;7.42;100.00;96617.03;2075452;28;20559;-64
2023/12/29 09:51:53;;;;;;;4.03;2.17;;;;;;;7.43;100.00;96599.72;2077473;28;20190;-65
2023/12/29 09:52:55;;;;;;;4.72;2.20;;;;;;;7.53;100.00;96616.72;2077693;28;20201;-64
2023/12/29 09:53:58;;;;;;;5.25;2.95;;;;;;;7.54;100.00;96608.00;2079138;28;20875;-64
2023/12/29 09:55:00;;;;;;;4.50;2.50;;;;;;;7.55;100.00;96614.06;2083503;28;20233;-72
2023/12/29 09:56:05;;;;;;;5.93;2.45;;;;;;;7.54;100.00;96608.00;2081976;28;20935;-72
2023/12/29 09:57:08;;;;;;;4.10;2.53;;;;;;;7.61;100.00;96606.91;2083229;28;20201;-73
2023/12/29 09:58:12;;;;;;;4.40;2.85;;;;;;;7.72;100.00;96611.75;2079267;28;20778;-73
2023/12/29 09:59:16;;;;;;;3.88;2.33;;;;;;;7.95;100.00;96613.56;2084585;28;20711;-73
2023/12/29 10:00:20;;;;;;;4.03;2.60;;;;;;;7.87;100.00;96604.31;2080121;28;20197;-74
2023/12/29 10:01:23;;;;;;;5.22;3.00;;;;;;;7.73;100.00;96590.03;2079462;28;20946;-74
2023/12/29 10:05:39;;;;;;;3.38;1.60;;;;;;;7.60;100.00;96601.75;2104329;27;21071;-73
2023/12/29 10:06:47;;;;;;;3.53;2.30;;;;;;;7.71;100.00;96593.56;2095528;28;20319;-74
2023/12/29 10:07:52;;;;;;;4.32;2.65;;;;;;;8.13;100.00;96593.00;2105509;28;20269;-74
2023/12/29 10:08:56;;;;;;;3.50;2.38;;;;;;;8.01;100.00;96602.94;2105405;28;20203;-74
2023/12/29 10:09:58;;;;;;;4.10;2.42;;;;;;;7.98;100.00;96597.81;2097748;28;20210;-74
2023/12/29 10:11:01;;;;;;;4.18;2.40;;;;;;;8.05;100.00;96587.22;2099227;28;20273;-75
2023/12/29 10:12:05;;;;;;;6.70;3.35;;;;;;;8.74;100.00;96595.13;2096994;28;20261;-75
2023/12/29 10:13:11;;;;;;;5.32;2.53;;;;;;;9.47;100.00;96580.09;2094406;28;20670;-68
2023/12/29 10:14:22;;;;;;;3.25;1.98;;;;;;;9.68;97.82;96579.25;2097661;28;20880;-67
2023/12/29 10:15:37;;;;;;;3.60;1.80;;;;;;;10.37;93.85;96565.00;2097045;28;20663;-66
2023/12/29 10:16:43;;;;;;;3.83;1.55;;;;;;;10.80;90.92;96570.84;2092624;28;20212;-67
2023/12/29 10:18:02;;;;;;;2.25;1.50;;;;;;;-145.49;100.00;55703.94;2096885;28;20212;-68
2023/12/29 10:19:35;;;;;;;2.65;1.63;;;;;;;-145.49;100.00;55703.94;2090181;28;20192;-68
2023/12/29 10:21:02;;;;;;;4.07;1.15;;;;;;;-145.49;100.00;55703.94;2095629;28;20761;-68
2023/12/29 10:22:15;;;;;;;2.50;1.20;;;;;;;-145.49;100.00;55703.94;2089478;28;20227;-68
2023/12/29 10:23:31;;;;;;;3.65;1.27;;;;;;;-145.49;100.00;55703.94;2095309;28;20273;-67
2023/12/29 10:24:34;;;;;;;2.00;1.15;;;;;;;-145.49;100.00;55703.94;2089873;28;20861;-68
2023/12/29 10:25:36;;;;;;;3.15;1.45;;;;;;;-145.49;100.00;55703.94;2081298;28;20241;-68
2023/12/29 10:26:41;;;;;;;3.08;1.30;;;;;;;-145.49;100.00;55703.94;2073611;28;20231;-67
2023/12/29 10:27:43;;;;;;;1.80;1.10;;;;;;;-145.49;100.00;55703.94;2090447;28;20296;-68
2023/12/29 10:28:47;;;;;;;3.47;1.25;;;;;;;-145.49;100.00;55703.94;2090242;28;21137;-68
2023/12/29 10:29:49;;;;;;;1.63;0.93;;;;;;;-145.49;100.00;55703.94;2085524;28;20192;-75
2023/12/29 10:30:51;;;;;;;2.83;1.20;;;;;;;-145.49;100.00;55703.94;2089246;28;20795;-76
2023/12/29 10:31:54;;;;;;;3.53;1.25;;;;;;;-145.49;100.00;55703.94;2090583;28;20231;-74
2023/12/29 10:32:57;;;;;;;2.70;1.00;;;;;;;-145.49;100.00;55703.94;2088101;28;20197;-74
2023/12/29 10:34:18;;;;;;;2.05;1.05;;;;;;;-145.49;100.00;55703.94;2086317;28;20286;-73
2023/12/29 10:35:19;;;;;;;1.85;1.10;;;;;;;-145.49;100.00;55703.94;2089143;28;20249;-73
2023/12/29 10:36:21;;;;;;;2.35;1.20;;;;;;;-145.49;100.00;55703.94;2087719;28;20707;-73
2023/12/29 10:37:23;;;;;;;2.63;1.33;;;;;;;-145.49;100.00;55703.94;2085188;28;20196;-68
2023/12/29 10:38:27;;;;;;;2.33;0.98;;;;;;;-145.49;100.00;55703.94;2085999;28;20200;-69
2023/12/29 10:39:32;;;;;;;1.30;0.90;;;;;;;-145.49;100.00;55703.94;2079924;28;20193;-68
2023/12/29 10:40:34;;;;;;;2.63;1.23;;;;;;;-145.49;100.00;55703.94;2088021;28;20197;-68
2023/12/29 10:41:36;;;;;;;2.10;1.00;;;;;;;-145.49;100.00;55703.94;2081360;28;20591;-68
2023/12/29 10:42:52;;;;;;;2.05;1.00;;;;;;;-145.49;100.00;55703.94;2085203;28;20197;-69
2023/12/29 10:44:08;;;;;;;2.05;1.10;;;;;;;-145.49;100.00;55703.94;2085974;28;20290;-73
2023/12/29 10:45:11;;;;;;;2.55;1.20;;;;;;;-145.49;100.00;55703.94;2079964;28;20233;-71
2023/12/29 10:46:13;;;;;;;1.60;0.70;;;;;;;-145.49;100.00;55703.94;2087051;28;20216;-71
2023/12/29 10:47:14;;;;;;;1.60;1.00;;;;;;;-145.49;100.00;55703.94;2090478;28;20532;-71
2023/12/29 10:48:24;;;;;;;1.55;0.88;;;;;;;-145.49;100.00;55703.94;2087913;28;20238;-72
2023/12/29 10:49:25;;;;;;;1.30;0.70;;;;;;;-145.49;100.00;55703.94;2084900;28;20201;-71
2023/12/29 10:50:28;;;;;;;2.13;0.98;;;;;;;-145.49;100.00;55703.94;2085921;28;20197;-71
2023/12/29 10:51:30;;;;;;;4.30;0.95;;;;;;;-145.49;100.00;55703.94;2080431;28;20243;-75
2023/12/29 10:52:32;;;;;;;2.95;0.93;;;;;;;-145.49;100.00;55703.94;2086680;28;20197;-76
2023/12/29 10:53:35;;;;;;;1.60;0.80;;;;;;;-145.49;100.00;55703.94;2087902;28;20203;-76
2023/12/29 10:54:42;;;;;;;1.95;1.00;;;;;;;-145.49;100.00;55703.94;2088533;28;20205;-75
2023/12/29 10:55:47;;;;;;;2.17;0.80;;;;;;;-145.49;100.00;55703.94;2093640;28;20647;-75
2023/12/29 10:57:03;;;;;;;1.40;0.70;;;;;;;-145.49;100.00;55703.94;2082204;28;20221;-71
2023/12/29 10:58:05;;;;;;;1.50;0.70;;;;;;;-145.49;100.00;55703.94;2084787;28;20228;-71
2023/12/29 10:59:07;;;;;;;3.28;0.98;;;;;;;-145.49;100.00;55703.94;2086262;28;20768;-70
2023/12/29 11:00:12;;;;;;;1.65;0.80;;;;;;;-145.49;100.00;55703.94;2086405;28;20283;-72
2023/12/29 11:01:22;;;;;;;1.20;0.63;;;;;;;-145.49;100.00;55703.94;2091215;28;20285;-71
2023/12/29 11:02:24;;;;;;;5.70;0.90;;;;;;;-145.49;100.00;55703.94;2087807;28;20224;-72
2023/12/29 11:03:25;;;;;;;4.20;0.80;;;;;;;-145.49;100.00;55703.94;2087519;28;20652;-72
2023/12/29 11:04:27;;;;;;;1.50;0.90;;;;;;;-145.49;100.00;55703.94;2085571;28;20209;-72
2023/12/29 11:05:28;;;;;;;2.58;1.00;;;;;;;-145.49;100.00;55703.94;2081853;28;20224;-72
2023/12/29 11:06:40;;;;;;;1.60;0.80;;;;;;;-145.49;100.00;55703.94;2082407;28;20273;-71
2023/12/29 11:07:42;;;;;;;2.65;0.70;;;;;;;-145.49;100.00;55703.94;2089972;28;20208;-71
2023/12/29 11:08:43;;;;;;;1.83;0.90;;;;;;;-145.49;100.00;55703.94;2088678;28;20205;-72
2023/12/29 11:09:45;;;;;;;2.42;1.10;;;;;;;-145.49;100.00;55703.94;2085908;28;20196;-76
2023/12/29 11:10:50;;;;;;;1.75;0.70;;;;;;;-145.49;100.00;55703.94;2086528;28;20200;-76
2023/12/29 11:11:52;;;;;;;1.77;0.85;;;;;;;-145.49;100.00;55703.94;2089081;28;20940;-75
2023/12/29 11:12:54;;;;;;;1.73;0.88;;;;;;;-145.49;100.00;55703.94;2090648;28;20196;-76
2023/12/29 11:13:56;;;;;;;1.52;0.70;;;;;;;-145.49;100.00;55703.94;2088986;28;20232;-76
2023/12/29 11:15:05;;;;;;;1.77;0.80;;;;;;;-145.49;100.00;55703.94;2088510;28;20188;-75
2023/12/29 11:16:09;;;;;;;2.45;0.75;;;;;;;-145.49;100.00;55703.94;2090669;28;20666;-76
2023/12/29 11:17:13;;;;;;;2.72;1.00;;;;;;;-145.49;100.00;55703.94;2081460;28;20276;-75
2023/12/29 11:18:16;;;;;;;1.35;0.70;;;;;;;-145.49;100.00;55703.94;2078236;28;20202;-76
2023/12/29 11:19:18;;;;;;;1.77;0.82;;;;;;;-145.49;100.00;55703.94;2081342;28;20201;-72
2023/12/29 11:20:20;;;;;;;1.30;0.70;;;;;;;-145.49;100.00;55703.94;2082894;28;20202;-73
2023/12/29 11:21:22;;;;;;;3.47;0.85;;;;;;;-145.49;100.00;55703.94;2083663;28;20220;-72
2023/12/29 11:22:25;;;;;;;1.45;0.77;;;;;;;-145.49;100.00;55703.94;2078410;28;20248;-72
2023/12/29 11:23:27;;;;;;;1.83;0.90;;;;;;;-145.49;100.00;55703.94;2079794;28;20205;-71
2023/12/29 11:24:28;;;;;;;1.85;0.70;;;;;;;-145.49;100.00;55703.94;2081351;28;20750;-72
2023/12/29 11:25:39;;;;;;;1.30;0.80;;;;;;;-145.49;100.00;55703.94;2082573;28;20221;-72
2023/12/29 11:26:43;;;;;;;1.85;1.00;;;;;;;-145.49;100.00;55703.94;2080518;28;20605;-71
2023/12/29 11:27:45;;;;;;;2.10;1.10;;;;;;;-145.49;100.00;55703.94;2079186;28;20201;-72
2023/12/29 11:28:48;;;;;;;1.60;0.90;;;;;;;-145.49;100.00;55703.94;2083257;28;20633;-70
2023/12/29 11:29:50;;;;;;;1.70;0.93;;;;;;;-145.49;100.00;55703.94;2080706;28;20201;-74
2023/12/29 11:30:52;;;;;;;2.13;1.05;;;;;;;-145.49;100.00;55703.94;2079970;28;20292;-74
2023/12/29 11:31:56;;;;;;;2.53;0.95;;;;;;;-145.49;100.00;55703.94;2081383;28;20193;-73
2023/12/29 11:33:05;;;;;;;1.75;0.80;;;;;;;-145.49;100.00;55703.94;2079855;28;20197;-73
2023/12/29 11:34:18;;;;;;;2.10;0.90;;;;;;;-145.49;100.00;55703.94;2080657;28;20202;-74
2023/12/29 11:35:28;;;;;;;1.90;0.70;;;;;;;-145.49;100.00;55703.94;2081626;28;20282;-74
2023/12/29 11:36:37;;;;;;;1.45;0.90;;;;;;;-145.49;100.00;55703.94;2079965;28;20315;-73
2023/12/29 11:37:57;;;;;;;1.60;0.80;;;;;;;-145.49;100.00;55703.94;2082376;28;20207;-74
2023/12/29 11:39:30;;;;;;;1.67;0.90;;;;;;;-145.49;100.00;55703.94;2079190;28;20255;-74
2023/12/29 11:40:48;;;;;;;4.95;1.10;;;;;;;-145.49;100.00;55703.94;2080561;28;20209;-74
2023/12/29 11:41:59;;;;;;;2.03;0.80;;;;;;;-145.49;100.00;55703.94;2078331;28;20255;-73
2023/12/29 11:43:07;;;;;;;1.33;0.75;;;;;;;-145.49;100.00;55703.94;2078752;28;20198;-73
2023/12/29 11:44:08;;;;;;;3.38;0.90;;;;;;;-145.49;100.00;55703.94;2083858;28;20230;-73
2023/12/29 11:45:28;;;;;;;2.67;1.10;;;;;;;-145.49;100.00;55703.94;2085150;28;20196;-73
2023/12/29 11:46:43;;;;;;;3.10;1.00;;;;;;;-145.49;100.00;55703.94;2083626;28;20600;-74
2023/12/29 11:47:45;;;;;;;2.50;0.95;;;;;;;-145.49;100.00;55703.94;2075662;28;20205;-74
2023/12/29 11:48:58;;;;;;;2.10;0.90;;;;;;;-145.49;100.00;55703.94;2075121;28;20241;-74
2023/12/29 11:50:01;;;;;;;2.75;0.80;;;;;;;-145.49;100.00;55703.94;2076375;28;20198;-74
2023/12/29 11:51:30;;;;;;;2.35;0.75;;;;;;;-145.49;100.00;55703.94;2082549;28;20201;-73
2023/12/29 11:52:39;;;;;;;2.97;0.88;;;;;;;-145.49;100.00;55703.94;2083230;28;20197;-74
2023/12/29 11:53:41;;;;;;;4.70;1.10;;;;;;;-145.49;100.00;55703.94;2081047;28;20283;-74
2023/12/29 11:54:42;;;;;;;1.70;1.00;;;;;;;-145.49;100.00;55703.94;2075138;28;20264;-72
2023/12/29 11:55:44;;;;;;;2.65;1.05;;;;;;;-145.49;100.00;55703.94;2080302;28;20287;-72
2023/12/29 11:56:47;;;;;;;2.55;0.98;;;;;;;-145.49;100.00;55703.94;2081250;28;20251;-73
2023/12/29 11:57:48;;;;;;;1.70;0.80;;;;;;;-145.49;100.00;55703.94;2082715;28;20242;-72
2023/12/29 11:58:50;;;;;;;2.38;0.80;;;;;;;-145.49;100.00;55703.94;2081849;28;20201;-72
2023/12/29 11:59:53;;;;;;;2.10;1.00;;;;;;;-145.49;100.00;55703.94;2080652;28;20205;-73
2023/12/29 12:00:55;;;;;;;2.17;0.93;;;;;;;-145.49;100.00;55703.94;2079825;28;20553;-73
2023/12/29 12:02:00;;;;;;;1.45;0.90;;;;;;;-145.49;100.00;55703.94;2083380;28;20289;-73
2023/12/29 12:03:13;;;;;;;2.25;1.05;;;;;;;-145.49;100.00;55703.94;2085769;28;20209;-73
2023/12/29 12:04:44;;;;;;;1.77;0.90;;;;;;;-145.49;100.00;55703.94;2081668;28;20248;-73
2023/12/29 12:05:48;;;;;;;1.42;0.80;;;;;;;-145.49;100.00;55703.94;2063191;28;20212;-72
2023/12/29 12:06:50;;;;;;;1.92;1.17;;;;;;;-145.49;100.00;55703.94;2065727;28;20813;-72
2023/12/29 12:07:55;;;;;;;3.20;1.00;;;;;;;-145.49;100.00;55703.94;2069808;28;20306;-72
2023/12/29 12:09:27;;;;;;;1.95;1.15;;;;;;;-145.49;100.00;55703.94;2063367;28;20206;-73
2023/12/29 12:10:33;;;;;;;1.52;0.80;;;;;;;-145.49;100.00;55703.94;2065681;28;20206;-73
2023/12/29 12:11:35;;;;;;;2.63;0.80;;;;;;;-145.49;100.00;55703.94;2070499;28;20598;-72
2023/12/29 12:12:41;;;;;;;1.95;0.80;;;;;;;-145.49;100.00;55703.94;2071874;28;20213;-72
2023/12/29 12:13:45;;;;;;;1.63;0.73;;;;;;;-145.49;100.00;55703.94;2071265;28;20194;-71
2023/12/29 12:14:51;;;;;;;1.70;1.00;;;;;;;-145.49;100.00;55703.94;2075742;28;20842;-72
2023/12/29 12:15:53;;;;;;;1.40;0.73;;;;;;;-145.49;100.00;55703.94;2074398;28;20550;-73
2023/12/29 12:16:55;;;;;;;3.10;1.20;;;;;;;-145.49;100.00;55703.94;2072726;28;20197;-72
2023/12/29 12:17:58;;;;;;;2.05;1.23;;;;;;;-145.49;100.00;55703.94;2060941;28;20246;-72
2023/12/29 12:19:00;;;;;;;1.95;0.90;;;;;;;-145.49;100.00;55703.94;2071221;28;20210;-73
2023/12/29 12:20:08;;;;;;;1.50;0.70;;;;;;;-145.49;100.00;55703.94;2075963;28;20208;-72
2023/12/29 12:21:10;;;;;;;2.38;0.88;;;;;;;-145.49;100.00;55703.94;2065440;28;20344;-72
2023/12/29 12:22:12;;;;;;;1.50;0.88;;;;;;;-145.49;100.00;55703.94;2072779;28;20199;-73
2023/12/29 12:23:17;;;;;;;1.90;0.95;;;;;;;-145.49;100.00;55703.94;2073568;28;20200;-73
2023/12/29 12:24:22;;;;;;;2.00;0.90;;;;;;;-145.49;100.00;55703.94;2075297;28;20628;-72
2023/12/29 12:25:30;;;;;;;3.70;0.80;;;;;;;-145.49;100.00;55703.94;2075939;28;20280;-72
2023/12/29 12:26:33;;;;;;;3.60;1.33;;;;;;;-145.49;100.00;55703.94;2071957;28;20765;-73
2023/12/29 12:27:38;;;;;;;3.03;1.23;;;;;;;-145.49;100.00;55703.94;2072494;28;20297;-72
2023/12/29 12:28:43;;;;;;;3.70;1.35;;;;;;;-145.49;100.00;55703.94;2071791;28;20198;-73
2023/12/29 12:29:45;;;;;;;6.45;2.10;;;;;;;-145.49;100.00;55703.94;2074872;28;20202;-72
2023/12/29 12:30:46;;;;;;;3.33;1.35;;;;;;;-145.49;100.00;55703.94;2074102;28;20194;-72
2023/12/29 12:31:56;;;;;;;4.43;1.08;;;;;;;-145.49;100.00;55703.94;2073122;28;20727;-73
2023/12/29 12:32:59;;;;;;;6.65;1.00;;;;;;;-145.49;100.00;55703.94;2072816;28;20194;-72
2023/12/29 12:34:01;;;;;;;1.40;0.70;;;;;;;-145.49;100.00;55703.94;2072830;28;20202;-72
2023/12/29 12:35:03;;;;;;;1.63;1.00;;;;;;;-145.49;100.00;55703.94;2069680;28;20669;-73
2023/12/29 12:36:06;;;;;;;2.30;0.93;;;;;;;-145.49;100.00;55703.94;2069582;28;20302;-72
2023/12/29 12:37:08;;;;;;;2.00;1.27;;;;;;;-145.49;100.00;55703.94;2065588;28;20249;-73
2023/12/29 12:38:16;;;;;;;3.55;1.30;;;;;;;-145.49;100.00;55703.94;2061416;28;20660;-72
2023/12/29 12:39:18;;;;;;;1.50;0.90;;;;;;;-145.49;100.00;55703.94;2070813;28;20290;-72
2023/12/29 12:40:27;;;;;;;1.70;0.80;;;;;;;-145.49;100.00;55703.94;2071526;28;20221;-73
2023/12/29 12:41:29;;;;;;;1.65;1.15;;;;;;;-145.49;100.00;55703.94;2058074;28;20224;-72
2023/12/29 12:42:31;;;;;;;2.00;0.90;;;;;;;-145.49;100.00;55703.94;2070259;28;20649;-72
2023/12/29 12:43:34;;;;;;;3.92;1.10;;;;;;;-145.49;100.00;55703.94;2073229;28;20252;-73
2023/12/29 12:44:41;;;;;;;1.85;1.13;;;;;;;-145.49;100.00;55703.94;2070384;28;20637;-74
2023/12/29 12:45:47;;;;;;;2.05;1.10;;;;;;;-145.49;100.00;55703.94;2077679;28;20648;-72
2023/12/29 12:46:53;;;;;;;2.17;1.00;;;;;;;-145.49;100.00;55703.94;2066148;28;21105;-73
2023/12/29 12:48:02;;;;;;;2.22;1.20;;;;;;;-145.49;100.00;55703.94;2066017;28;20203;-73
2023/12/29 12:49:06;;;;;;;2.92;0.90;;;;;;;-145.49;100.00;55703.94;2075015;28;20194;-72
2023/12/29 12:50:09;;;;;;;2.35;1.10;;;;;;;-145.49;100.00;55703.94;2073647;28;20229;-73
2023/12/29 12:51:12;;;;;;;5.78;1.02;;;;;;;-145.49;100.00;55703.94;2071469;28;20206;-73
2023/12/29 12:52:14;;;;;;;2.15;1.00;;;;;;;-145.49;100.00;55703.94;2070725;28;20201;-73
2023/12/29 12:53:22;;;;;;;3.38;1.00;;;;;;;-145.49;100.00;55703.94;2072041;28;20197;-73
2023/12/29 12:54:23;;;;;;;2.00;1.10;;;;;;;-145.49;100.00;55703.94;2073691;28;20239;-73
2023/12/29 12:55:25;;;;;;;3.70;1.85;;;;;;;-145.49;100.00;55703.94;2070892;28;20285;-73
2023/12/29 12:56:28;;;;;;;1.73;1.10;;;;;;;-145.49;100.00;55703.94;2071421;28;20816;-73
2023/12/29 12:57:31;;;;;;;1.90;1.00;;;;;;;-145.49;100.00;55703.94;2066255;28;20203;-73
2023/12/29 12:58:33;;;;;;;1.35;0.85;;;;;;;-145.49;100.00;55703.94;2066938;28;20265;-72
2023/12/29 12:59:36;;;;;;;2.20;1.15;;;;;;;-145.49;100.00;55703.94;2070243;28;20197;-73
2023/12/29 13:00:38;;;;;;;1.50;0.90;;;;;;;-145.49;100.00;55703.94;2072730;28;21159;-73
2023/12/29 13:01:41;;;;;;;2.67;1.02;;;;;;;-145.49;100.00;55703.94;2071053;28;20276;-72
2023/12/29 13:02:46;;;;;;;2.55;1.10;;;;;;;-145.49;100.00;55703.94;2074184;28;20204;-72
2023/12/29 13:03:48;;;;;;;2.15;1.20;;;;;;;-145.49;100.00;55703.94;2072625;28;20199;-71
2023/12/29 13:04:51;;;;;;;2.53;1.10;;;;;;;-145.49;100.00;55703.94;2079331;28;20243;-73
2023/12/29 13:05:53;;;;;;;1.50;0.82;;;;;;;-145.49;100.00;55703.94;2090254;28;20594;-74
2023/12/29 13:06:55;;;;;;;3.03;1.50;;;;;;;-145.49;100.00;55703.94;2079465;28;20278;-72
2023/12/29 13:07:57;;;;;;;2.05;1.20;;;;;;;-145.49;100.00;55703.94;2077779;28;20841;-73
2023/12/29 13:09:00;;;;;;;2.10;1.20;;;;;;;-145.49;100.00;55703.94;2074449;28;20351;-72
2023/12/29 13:10:03;;;;;;;2.35;1.27;;;;;;;-145.49;100.00;55703.94;2081513;28;20599;-72
2023/12/29 13:11:05;;;;;;;2.28;1.27;;;;;;;-145.49;100.00;55703.94;2076924;28;20289;-72
2023/12/29 13:12:13;;;;;;;2.35;1.10;;;;;;;-145.49;100.00;55703.94;2076173;28;20271;-73
2023/12/29 13:13:15;;;;;;;2.60;1.30;;;;;;;-145.49;100.00;55703.94;2082555;28;20259;-72
2023/12/29 13:14:22;;;;;;;5.60;2.50;;;;;;;-145.49;100.00;55703.94;2078401;28;20210;-72
2023/12/29 13:15:23;;;;;;;7.18;3.35;;;;;;;-145.49;100.00;55703.94;2080578;28;20198;-73
2023/12/29 13:16:32;;;;;;;3.15;1.45;;;;;;;-145.49;100.00;55703.94;2078001;28;20293;-72
2023/12/29 13:17:34;;;;;;;3.50;1.70;;;;;;;-145.49;100.00;55703.94;2080181;28;20305;-72
2023/12/29 13:18:35;;;;;;;3.15;1.70;;;;;;;-145.49;100.00;55703.94;2081357;28;20197;-72
2023/12/29 13:19:41;;;;;;;7.20;2.65;;;;;;;-145.49;100.00;55703.94;2080081;28;20194;-73
2023/12/29 13:20:47;;;;;;;5.07;1.70;;;;;;;-145.49;100.00;55703.94;2081444;28;20195;-72
2023/12/29 13:21:50;;;;;;;4.15;2.00;;;;;;;-145.49;100.00;55703.94;2079635;28;20282;-72
2023/12/29 13:22:53;;;;;;;7.38;3.28;;;;;;;-145.49;100.00;55703.94;2082224;28;20236;-67
2023/12/29 13:23:55;;;;;;;15.18;7.80;;;;;;;-145.49;100.00;55703.94;2081210;28;20200;-66
2023/12/29 13:24:57;;;;;;;5.22;2.50;;;;;;;-145.49;100.00;55703.94;2082691;28;20220;-66
2023/12/29 13:26:07;;;;;;;8.85;4.60;;;;;;;-145.49;100.00;55703.94;2081501;28;20608;-66
2023/12/29 13:27:09;;;;;;;4.85;2.10;;;;;;;-145.49;100.00;55703.94;2082467;28;20802;-66
2023/12/29 13:28:10;;;;;;;6.65;3.05;;;;;;;-145.49;100.00;55703.94;2084088;28;20196;-66
2023/12/29 13:29:14;;;;;;;13.75;3.38;;;;;;;-145.49;100.00;55703.94;2082811;28;20993;-66
2023/12/29 13:30:19;;;;;;;7.13;2.45;;;;;;;-145.49;100.00;55703.94;2076985;28;20202;-66
2023/12/29 13:31:20;;;;;;;6.00;1.95;;;;;;;-145.49;100.00;55703.94;2076990;28;20222;-66
2023/12/29 13:32:30;;;;;;;2.17;1.20;;;;;;;-145.49;100.00;55703.94;2079558;28;20794;-65
2023/12/29 13:33:35;;;;;;;2.40;1.20;;;;;;;-145.49;100.00;55703.94;2078722;28;20197;-66
2023/12/29 13:34:49;;;;;;;2.47;1.10;;;;;;;-145.49;100.00;55703.94;2079271;28;20766;-66
2023/12/29 13:36:01;;;;;;;3.70;1.90;;;;;;;-145.49;100.00;55703.94;2080715;28;20196;-66
2023/12/29 13:37:20;;;;;;;2.50;1.17;;;;;;;-145.49;100.00;55703.94;2081532;28;20217;-70
2023/12/29 13:38:27;;;;;;;4.72;1.30;;;;;;;-145.49;100.00;55703.94;2082708;28;20241;-68
2023/12/29 13:39:41;;;;;;;3.05;1.40;;;;;;;-145.49;100.00;55703.94;2081468;28;20296;-66
2023/12/29 13:40:55;;;;;;;3.17;1.40;;;;;;;-145.49;100.00;55703.94;2081533;28;20209;-66
2023/12/29 13:41:59;;;;;;;2.78;1.50;;;;;;;-145.49;100.00;55703.94;2078599;28;20228;-66
2023/12/29 13:43:03;;;;;;;2.28;1.23;;;;;;;-145.49;100.00;55703.94;2082922;28;20207;-66
2023/12/29 13:44:06;;;;;;;2.28;1.23;;;;;;;-145.49;100.00;55703.94;2079598;28;20200;-66
2023/12/29 13:45:09;;;;;;;3.78;1.33;;;;;;;-145.49;100.00;55703.94;2075996;28;20201;-66
2023/12/29 13:46:12;;;;;;;2.15;1.40;;;;;;;-145.49;100.00;55703.94;2077942;28;20307;-66
2023/12/29 13:47:14;;;;;;;3.30;1.30;;;;;;;-145.49;100.00;55703.94;2082660;28;20209;-66
2023/12/29 13:48:17;;;;;;;3.40;1.00;;;;;;;-145.49;100.00;55703.94;2077875;28;20202;-66
2023/12/29 13:49:19;;;;;;;3.90;1.50;;;;;;;-145.49;100.00;55703.94;2080201;28;20679;-66
2023/12/29 13:50:21;;;;;;;3.20;1.55;;;;;;;-145.49;100.00;55703.94;2082081;28;20667;-66
2023/12/29 13:51:26;;;;;;;1.60;0.90;;;;;;;-145.49;100.00;55703.94;2079635;28;20308;-66
2023/12/29 13:52:28;;;;;;;2.95;1.10;;;;;;;-145.49;100.00;55703.94;2081966;28;20644;-65
2023/12/29 13:53:30;;;;;;;2.40;1.10;;;;;;;-145.49;100.00;55703.94;2083877;28;20208;-66
2023/12/29 13:54:41;;;;;;;2.47;1.10;;;;;;;-145.49;100.00;55703.94;2080996;28;20279;-65
2023/12/29 13:55:43;;;;;;;3.17;1.50;;;;;;;-145.49;100.00;55703.94;2073928;28;20205;-68
2023/12/29 13:56:54;;;;;;;2.88;1.45;;;;;;;-145.49;100.00;55703.94;2074181;28;20214;-65
2023/12/29 13:57:56;;;;;;;4.80;1.95;;;;;;;-145.49;100.00;55703.94;2082239;28;20894;-66
2023/12/29 13:59:04;;;;;;;4.95;1.70;;;;;;;-145.49;100.00;55703.94;2082400;28;20205;-69
2023/12/29 14:00:18;;;;;;;4.28;1.63;;;;;;;-145.49;100.00;55703.94;2082938;28;20197;-69
2023/12/29 14:01:20;;;;;;;2.92;1.58;;;;;;;-145.49;100.00;55703.94;2079592;28;20229;-69
2023/12/29 14:02:31;;;;;;;3.00;1.42;;;;;;;-145.49;100.00;55703.94;2081201;28;20232;-68
2023/12/29 14:04:03;;;;;;;5.70;1.50;;;;;;;-145.49;100.00;55703.94;2080084;28;20201;-69
2023/12/29 14:05:12;;;;;;;5.07;1.80;;;;;;;-145.49;100.00;55703.94;2059043;28;20259;-68
2023/12/29 14:06:21;;;;;;;5.35;1.45;;;;;;;-145.49;100.00;55703.94;2085785;28;20231;-68
2023/12/29 14:07:25;;;;;;;5.80;1.35;;;;;;;-145.49;100.00;55703.94;2089364;28;20208;-69
2023/12/29 14:08:40;;;;;;;5.43;1.70;;;;;;;-145.49;100.00;55703.94;2082713;28;20205;-68
2023/12/29 14:09:41;;;;;;;6.10;1.85;;;;;;;-145.49;100.00;55703.94;2079573;28;20223;-68
2023/12/29 14:10:43;;;;;;;5.05;1.80;;;;;;;-145.49;100.00;55703.94;2078310;28;20707;-68
2023/12/29 14:24:00;;;;;;;3.20;1.50;;;;;;;;;;2104678;27;20545;-68
2023/12/29 14:25:03;;;;;;;8.75;1.35;;;;;;;;;;2103740;28;20238;-69
2023/12/29 14:26:05;;;;;;;2.58;1.17;;;;;;;;;;2102572;27;20858;-69
2023/12/29 14:27:08;;;;;;;2.15;1.17;;;;;;;;;;2094831;28;20215;-69
2023/12/29 14:34:21;;;;;;;2.47;1.20;;;;;;;;;;2083313;28;21270;-68
2023/12/29 14:35:23;;;;;;;2.15;0.90;;;;;;;;;;2081735;28;20262;-68
2023/12/29 14:36:25;;;;;;;2.47;1.00;;;;;;;;;;2079447;28;20229;-68
2023/12/29 14:37:26;;;;;;;3.85;0.93;;;;;;;;;;2074586;28;20197;-70
2023/12/29 14:38:27;;;;;;;1.75;0.90;;;;;;;;;;2072345;28;20669;-70
2023/12/29 14:39:29;;;;;;;1.85;0.80;;;;;;;;;;2073340;28;20206;-70
2023/12/29 14:40:34;;;;;;;3.65;1.00;;;;;;;;;;2081396;28;20254;-71
2023/12/29 14:41:36;;;;;;;3.45;1.25;;;;;;;;;;2080839;28;20217;-71
2023/12/29 14:42:39;;;;;;;1.95;0.95;;;;;;;;;;2073761;28;20198;-71
2023/12/29 14:43:41;;;;;;;3.97;1.63;;;;;;;;;;2074388;28;20778;-71
2023/12/29 14:44:45;;;;;;;4.57;1.42;;;;;;;;;;2070228;28;20285;-71
2023/12/29 14:45:46;;;;;;;2.90;1.33;;;;;;;;;;2073941;28;20202;-70
2023/12/29 14:46:47;;;;;;;2.88;1.10;;;;;;;;;;2070749;28;20226;-70
2023/12/29 14:47:49;;;;;;;2.22;1.05;;;;;;;;;;2072775;28;20745;-70
2023/12/29 14:48:51;;;;;;;3.80;1.23;;;;;;;;;;2073827;28;20260;-71
2023/12/29 14:49:53;;;;;;;1.73;0.90;;;;;;;;;;2071605;28;20831;-71
2023/12/29 14:50:55;;;;;;;1.85;0.80;;;;;;;;;;2073101;28;20284;-70
2023/12/29 14:51:56;;;;;;;2.80;0.98;;;;;;;;;;2071900;28;20677;-71
2023/12/29 14:52:58;;;;;;;1.75;1.00;;;;;;;;;;2070060;28;20230;-71
2023/12/29 14:54:02;;;;;;;4.13;1.10;;;;;;;;;;2072242;28;20216;-71
2023/12/29 14:55:04;;;;;;;2.20;1.00;;;;;;;;;;2069903;28;20241;-70
2023/12/29 14:56:06;;;;;;;3.22;1.00;;;;;;;;;;2070130;28;20670;-70
2023/12/29 14:57:07;;;;;;;2.15;1.10;;;;;;;;;;2074016;28;20190;-70
2023/12/29 14:58:16;;;;;;;2.25;0.98;;;;;;;;;;2073701;28;20194;-71
2023/12/29 14:59:17;;;;;;;4.53;1.10;;;;;;;;;;2073787;28;20200;-70
2023/12/29 15:00:19;;;;;;;4.47;1.52;;;;;;;;;;2072135;28;20197;-71
2023/12/29 15:01:20;;;;;;;2.20;1.10;;;;;;;;;;2070320;28;20222;-70
2023/12/29 15:02:21;;;;;;;2.63;1.10;;;;;;;;;;2070024;28;20846;-70
2023/12/29 15:03:23;;;;;;;2.95;1.30;;;;;;;;;;2070824;28;20221;-71
2023/12/29 15:04:25;;;;;;;1.73;1.10;;;;;;;;;;2073372;28;20222;-70
2023/12/29 15:05:26;;;;;;;2.13;1.20;;;;;;;;;;2073111;28;20194;-71
2023/12/29 15:06:27;;;;;;;1.70;1.00;;;;;;;;;;2071416;28;20296;-70
2023/12/29 15:07:30;;;;;;;2.38;1.00;;;;;;;;;;2070040;28;20190;-70
2023/12/29 15:08:34;;;;;;;2.05;1.10;;;;;;;;;;2073655;28;20202;-70
2023/12/29 15:09:36;;;;;;;2.05;1.00;;;;;;;;;;2074367;28;20210;-70
2023/12/29 15:10:37;;;;;;;2.85;1.20;;;;;;;;;;2073999;28;20205;-70
2023/12/29 15:11:39;;;;;;;3.05;1.10;;;;;;;;;;2074680;28;20229;-70
2023/12/29 15:12:40;;;;;;;2.10;0.95;;;;;;;;;;2073418;28;20194;-70
2023/12/29 15:13:42;;;;;;;1.70;0.90;;;;;;;;;;2070900;28;20558;-70
2023/12/29 15:14:43;;;;;;;3.15;1.00;;;;;;;;;;2073290;28;20206;-68
2023/12/29 15:15:45;;;;;;;3.78;1.20;;;;;;;;;;2073478;28;20194;-68
2023/12/29 15:16:46;;;;;;;2.35;1.00;;;;;;;;;;2071129;28;20229;-68
2023/12/29 15:17:48;;;;;;;2.25;1.30;;;;;;;;;;2071963;28;20769;-71
2023/12/29 15:18:50;;;;;;;2.40;0.80;;;;;;;;;;2071551;28;20201;-66
